• Join FlightAware (Why Join?)
  • Login
  • US Flag 
06:57PM EDT


 

Airport Tracker/Info


-or-


 

Live Flight TrackerFlight Track Log ✈ TCF3559 ✈ 24-Apr-2013 ✈ KIAH - KCMH

Flight Track Log - Related Links

Times and Time Zones

All times are in EDT time to prevent confusion due to time zone crossing. See the TCF3559 flight status page for this flight to view local times or setup timezone preferences in your user account.

Time Position Orientation Groundspeed Altitude Reporting Facility
EDT Latitude Longitude Course Direction KTS MPH feet Rate Location/Type
02:40PM 29.9794 -95.3536 27° Northeast 144 166 600  Level Houston Center
02:42PM 30.0458 -95.3414 North 175 201 3,100 1,320 Climbing Houston Center
02:43PM 30.1211 -95.3194 14° North 266 306 4,000 1,380 Climbing Houston Center
02:44PM 30.5623 -95.0807 30° Northeast  Level FlightAware Approximate
02:44PM 30.1839 -95.2939 19° North 264 304 6,000  Level Houston Center
02:45PM 30.6680 -95.0047 30° Northeast  Level FlightAware Approximate
02:45PM 30.2575 -95.2564 24° Northeast 286 329 8,400  Level Houston Center
02:46PM 30.7789 -94.9427 27° Northeast  Level FlightAware Approximate
02:46PM 30.3353 -95.2175 23° Northeast 302 348 10,500  Level Houston Center
02:47PM 30.4322 -95.1714 22° Northeast 338 389 13,200 2,460 Climbing Houston Center
02:48PM 30.5194 -95.1186 28° Northeast 349 402 15,700 2,220 Climbing Houston Center
02:49PM 30.6100 -95.0631 28° Northeast 364 419 17,800 2,100 Climbing Houston Center
02:50PM 30.7050 -95.0031 29° Northeast 384 442 20,100 2,340 Climbing Houston Center
02:51PM 30.8228 -94.9297 28° Northeast 397 457 22,700 2,040 Climbing Houston Center
02:52PM 30.9222 -94.8675 28° Northeast 404 465 24,400 1,560 Climbing Houston Center
02:53PM 31.0050 -94.8153 28° Northeast 394 453 25,800 1,380 Climbing Fort Worth Center
02:54PM 31.1058 -94.7519 28° Northeast 399 459 27,100 1,200 Climbing Fort Worth Center
02:55PM 31.2192 -94.6806 28° Northeast 423 487 28,300 900 Climbing Fort Worth Center
02:56PM 31.3242 -94.6047 32° Northeast 434 499 29,000 300 Climbing Fort Worth Center
02:57PM 31.4517 -94.5181 30° Northeast 457 526 29,000  Level Fort Worth Center
02:58PM 31.5728 -94.4339 31° Northeast 483 556 29,000  Level Fort Worth Center
02:59PM 31.6939 -94.3492 31° Northeast 494 568 29,000  Level Fort Worth Center
03:00PM 31.8169 -94.2644 30° Northeast 499 574 29,000 600 Level Fort Worth Center
03:01PM 31.9381 -94.1794 31° Northeast 504 580 30,300 960 Climbing Fort Worth Center
03:02PM 32.0550 -94.0969 31° Northeast 492 566 31,000 300 Climbing Fort Worth Center
03:03PM 32.1717 -94.0142 31° Northeast 485 558 31,000  Level Fort Worth Center
03:04PM 32.2822 -93.9314 32° Northeast 491 565 31,000  Level Fort Worth Center
03:05PM 32.4031 -93.8456 31° Northeast 497 572 31,000  Level Fort Worth Center
03:06PM 32.5217 -93.7597 31° Northeast 502 578 31,000  Level Fort Worth Center
03:07PM 32.6422 -93.6758 30° Northeast 502 578 31,000  Level Fort Worth Center
03:08PM 32.7647 -93.5892 31° Northeast 502 578 31,000  Level Fort Worth Center
03:09PM 32.8833 -93.5025 32° Northeast 502 578 31,000  Level Fort Worth Center
03:10PM 33.0181 -93.4050 31° Northeast 508 585 31,000  Level Fort Worth Center
03:11PM 33.1383 -93.3203 31° Northeast 508 585 31,000  Level Fort Worth Center
03:12PM 33.2564 -93.2328 32° Northeast 503 579 31,000  Level Fort Worth Center
03:13PM 33.4542 -93.0911 31° Northeast 533 613 31,000  Level Memphis Center
03:14PM 33.5750 -93.0025 31° Northeast 520 598 31,000  Level Memphis Center
03:15PM 33.6958 -92.9164 31° Northeast 507 583 31,000  Level Memphis Center
03:16PM 33.8144 -92.8272 32° Northeast 501 577 31,000  Level Memphis Center
03:17PM 33.9394 -92.7383 31° Northeast 506 582 31,000  Level Memphis Center
03:18PM 34.0578 -92.6461 33° Northeast 506 582 31,000  Level Memphis Center
03:19PM 34.1783 -92.5567 32° Northeast 501 577 31,000  Level Memphis Center
03:20PM 34.3011 -92.4642 32° Northeast 501 577 31,000  Level Memphis Center
03:21PM 34.4236 -92.3714 32° Northeast 501 577 31,000  Level Memphis Center
03:22PM 34.5439 -92.2811 32° Northeast 507 583 31,000  Level Memphis Center
03:23PM 34.6644 -92.1853 33° Northeast 507 583 31,000  Level Memphis Center
03:24PM 34.7725 -92.0611 43° Northeast 512 589 31,000  Level Memphis Center
03:25PM 34.8764 -91.9292 46° Northeast 517 595 31,000  Level Memphis Center
03:26PM 34.9783 -91.7992 46° Northeast 528 608 31,000  Level Memphis Center
03:27PM 35.0797 -91.6664 47° Northeast 533 613 31,000  Level Memphis Center
03:28PM 35.1792 -91.5358 47° Northeast 533 613 31,000  Level Memphis Center
03:29PM 35.2825 -91.4025 46° Northeast 533 613 31,000  Level Memphis Center
03:30PM 35.3878 -91.2661 47° Northeast 533 613 31,000  Level Memphis Center
03:31PM 35.4806 -91.1475 46° Northeast 533 613 31,000  Level Memphis Center
03:32PM 35.5814 -91.0131 47° Northeast 538 619 31,000  Level Memphis Center
03:33PM 35.6864 -90.8758 47° Northeast 538 619 31,000  Level Memphis Center
03:34PM 35.7806 -90.7408 49° Northeast 528 608 31,000  Level Memphis Center
03:35PM 35.8853 -90.6056 46° Northeast 528 608 31,000  Level Memphis Center
03:36PM 35.9897 -90.4672 47° Northeast 534 615 31,000  Level Memphis Center
03:37PM 36.0919 -90.3286 48° Northeast 539 620 31,000  Level Memphis Center
03:38PM 36.1939 -90.1925 47° Northeast 544 626 31,000  Level Memphis Center
03:39PM 36.2978 -90.0531 47° Northeast 544 626 31,000  Level Memphis Center
03:40PM 36.4017 -89.9136 47° Northeast 544 626 31,000  Level Memphis Center
03:41PM 36.5053 -89.7736 47° Northeast 544 626 31,000  Level Memphis Center
03:42PM 36.6089 -89.6331 47° Northeast 544 626 31,000  Level Memphis Center
03:43PM 36.7244 -89.4767 47° Northeast 544 626 31,000  Level Memphis Center
03:44PM 36.8275 -89.3331 48° Northeast 544 626 31,000  Level Memphis Center
03:45PM 36.9325 -89.1864 48° Northeast 544 626 31,000  Level Memphis Center
03:46PM 37.0353 -89.0444 48° Northeast 544 626 31,000  Level Memphis Center
03:47PM 37.1378 -88.8972 49° Northeast 544 626 31,000  Level Memphis Center
03:48PM 37.2444 -88.7519 47° Northeast 544 626 31,000  Level Memphis Center
03:49PM 37.3486 -88.6064 48° Northeast 544 626 31,000  Level Memphis Center
03:52PM 37.6047 -88.2275 49° Northeast 570 656 31,000  Level Indianapolis Center
03:53PM 37.7033 -88.0606 53° Northeast 581 669 31,000  Level Indianapolis Center
03:54PM 37.7778 -87.8811 62° Northeast 586 674 31,000  Level Indianapolis Center
03:55PM 37.8525 -87.6981 63° Northeast 585 673 31,000  Level Indianapolis Center
03:56PM 37.9278 -87.5150 62° Northeast 587 676 31,000  Level Indianapolis Center
03:57PM 38.0011 -87.3306 63° Northeast 588 677 31,000  Level Indianapolis Center
03:58PM 38.0894 -87.1108 63° Northeast 587 676 31,000  Level Indianapolis Center
03:59PM 38.1625 -86.9278 63° Northeast 592 681 31,000  Level Indianapolis Center
04:00PM 38.2356 -86.7444 63° Northeast 592 681 31,000  Level Indianapolis Center
04:01PM 38.3089 -86.5583 63° Northeast 592 681 31,000  Level Indianapolis Center
04:02PM 38.3825 -86.3697 63° Northeast 594 684 31,000  Level Indianapolis Center
04:03PM 38.4714 -86.1422 63° Northeast 596 686 31,000  Level Indianapolis Center
04:04PM 38.5447 -85.9525 64° Northeast 596 686 31,000  Level Indianapolis Center
04:06PM 38.5900 -85.7858 65° Northeast  Level FlightAware Approximate
04:06PM 38.6936 -85.5633 65° Northeast 604 695 31,000  Level Indianapolis Center
04:08PM 38.7644 -85.3739 64° Northeast 592 681 29,200 -1,920 Descending Indianapolis Center
04:09PM 38.8372 -85.1825 64° Northeast 595 685 27,100 -2,280 Descending Indianapolis Center
04:10PM 38.9197 -84.9608 64° Northeast 588 677 24,600 -1,500 Descending Indianapolis Center
04:11PM 38.9833 -84.7858 65° Northeast 564 649 24,000 -300 Descending Indianapolis Center
04:12PM 39.0636 -84.6150 59° Northeast 554 638 24,000 -600 Level Indianapolis Center
04:13PM 39.1536 -84.4533 54° Northeast 552 635 22,800 -1,560 Descending Indianapolis Center
04:14PM 39.2397 -84.2958 55° Northeast 537 618 20,800 -1,860 Descending Indianapolis Center
04:15PM 39.3289 -84.1078 58° Northeast 526 605 19,000 -960 Descending Indianapolis Center
04:16PM 39.3939 -83.9375 64° Northeast 524 603 18,900 -1,320 Descending Indianapolis Center
04:17PM 39.4575 -83.7703 64° Northeast 518 596 16,300 -2,280 Descending Indianapolis Center
04:18PM 39.5150 -83.6186 64° Northeast 471 542 14,300 -2,160 Descending Indianapolis Center
04:19PM 39.5639 -83.4933 63° Northeast 405 466 12,300 -2,280 Descending Indianapolis Center
04:20PM 39.6114 -83.3856 60° Northeast 402 463 10,400 -1,920 Descending Indianapolis Center
04:20PM 39.6250 -83.3631 52° Northeast 401 461 10,000 -420 Descending Indianapolis Center
04:21PM 39.6822 -83.2722 51° Northeast 368 423 10,000 -540 Level Indianapolis Center
04:21PM 39.7000 -83.2400 54° Northeast 376 433 9,500 -1,380 Descending Indianapolis Center
04:22PM 39.7394 -83.1731 53° Northeast 335 386 8,600 -1,380 Descending Indianapolis Center
04:22PM 39.7564 -83.1464 50° Northeast 337 388 8,100 -1,620 Descending Indianapolis Center
04:23PM 39.7942 -83.0819 53° Northeast 310 357 7,000 -1,560 Descending Indianapolis Center
04:23PM 39.8122 -83.0547 49° Northeast 325 374 6,500 -1,020 Descending Indianapolis Center
04:24PM 39.8483 -82.9931 53° Northeast 306 352 6,000 -600 Descending Indianapolis Center
04:24PM 39.8644 -82.9675 51° Northeast 312 359 5,900  Descending Indianapolis Center
04:25PM 39.9000 -82.9094 51° Northeast 304 350 6,000  Climbing Indianapolis Center
04:25PM 39.9106 -82.8764 67° East 311 358 5,900 -120 Descending Indianapolis Center
04:26PM 39.9089 -82.8072 92° East 282 325 5,900 -600 Level Indianapolis Center
04:26PM 39.9056 -82.7586 95° East 275 316 5,300 -1,140 Descending Indianapolis Center
04:27PM 39.9031 -82.7058 94° East 252 290 4,800 -1,200 Descending Indianapolis Center
04:27PM 39.9008 -82.6678 94° East 256 295 4,100 -840 Descending Indianapolis Center
04:28PM 39.8983 -82.6211 94° East 251 289 4,000 -240 Descending Indianapolis Center
04:28PM 39.9169 -82.5939 48° Northeast 238 274 3,900 -120 Descending Indianapolis Center
04:29PM 39.9483 -82.5886 North 212 244 3,900 -300 Level Indianapolis Center
04:29PM 39.9731 -82.5986 343° North 218 251 3,600 -840 Descending Indianapolis Center
04:30PM 39.9856 -82.6308 297° West 190 219 3,100 -720 Descending Indianapolis Center
04:30PM 39.9883 -82.6572 278° West 187 215 2,900 -120 Descending Indianapolis Center
04:31PM 39.9903 -82.6856 275° West 145 167 3,000  Climbing Indianapolis Center
04:31PM 39.9917 -82.7117 274° West 163 188 2,900 -120 Descending Indianapolis Center
04:32PM 39.9947 -82.7433 277° West 159 183 2,900 -420 Level Indianapolis Center
04:32PM 39.9950 -82.7653 271° West 153 176 2,500 -720 Descending Indianapolis Center
04:33PM 39.9975 -82.7981 276° West 136 157 2,100 -780 Descending Indianapolis Center